Time;durP1;ratioP1;P1;durP2;ratioP2;P2;SDS_P1;SDS_P2;PMS_P1;PMS_P2;Temp;Humidity;BMP_temperature;BMP_pressure;BME280_temperature;BME280_humidity;BME280_pressure;Samples;Min_cycle;Max_cycle;Signal;HPM_P1;HPM_P2
2022/06/13 00:01:00;;;;;;;3.75;1.48;;;17.20;56.30;;;;;;642272;221;26547;-65
2022/06/13 00:03:28;;;;;;;2.72;1.52;;;17.20;56.50;;;;;;639962;223;26759;-65
2022/06/13 00:05:55;;;;;;;3.37;1.60;;;17.20;56.70;;;;;;638543;225;26479;-65
2022/06/13 00:08:22;;;;;;;2.80;1.80;;;17.20;57.00;;;;;;639073;223;26785;-65
2022/06/13 00:10:50;;;;;;;2.35;1.33;;;17.20;57.10;;;;;;641271;220;26491;-65
2022/06/13 00:13:17;;;;;;;4.20;1.42;;;17.20;57.20;;;;;;644795;220;26814;-67
2022/06/13 00:15:44;;;;;;;2.35;1.60;;;17.10;57.20;;;;;;639014;221;26551;-65
2022/06/13 00:18:11;;;;;;;3.15;1.77;;;17.10;57.30;;;;;;641246;221;26794;-65
2022/06/13 00:20:38;;;;;;;1.80;1.27;;;17.10;57.40;;;;;;639211;223;26570;-65
2022/06/13 00:23:06;;;;;;;2.97;1.60;;;17.00;57.40;;;;;;647046;221;27207;-65
2022/06/13 00:25:33;;;;;;;1.45;1.27;;;17.00;57.50;;;;;;644517;221;26531;-65
2022/06/13 00:28:00;;;;;;;1.92;1.50;;;17.00;57.60;;;;;;642700;221;26803;-65
2022/06/13 00:30:27;;;;;;;2.03;1.40;;;17.00;57.80;;;;;;644018;221;26565;-65
2022/06/13 00:32:56;;;;;;;4.37;1.65;;;16.90;57.80;;;;;;637917;221;26562;-66
2022/06/13 00:35:22;;;;;;;2.25;1.50;;;16.90;58.00;;;;;;641563;221;27190;-65
2022/06/13 00:37:49;;;;;;;3.20;1.62;;;16.80;58.10;;;;;;643514;221;26533;-65
2022/06/13 00:40:16;;;;;;;1.75;1.25;;;16.80;58.20;;;;;;638939;221;26889;-66
2022/06/13 00:42:43;;;;;;;4.30;1.80;;;16.70;58.20;;;;;;638326;221;26562;-66
2022/06/13 00:45:13;;;;;;;1.98;1.50;;;16.70;58.40;;;;;;638620;221;26580;-66
2022/06/13 00:47:42;;;;;;;2.08;1.55;;;16.70;58.50;;;;;;637379;224;26788;-66
2022/06/13 00:50:09;;;;;;;3.37;1.60;;;16.60;58.70;;;;;;639892;221;26807;-66
2022/06/13 00:52:43;;;;;;;2.10;1.45;;;16.60;58.50;;;;;;647884;221;26587;-66
2022/06/13 00:55:10;;;;;;;3.37;1.60;;;16.50;58.80;;;;;;639180;221;26572;-66
2022/06/13 00:57:37;;;;;;;3.17;1.40;;;16.50;58.80;;;;;;646423;221;26766;-66
2022/06/13 01:00:07;;;;;;;5.47;1.70;;;16.40;58.90;;;;;;638088;221;26542;-66
2022/06/13 01:02:35;;;;;;;2.90;1.60;;;16.40;59.00;;;;;;638192;224;26736;-66
2022/06/13 01:05:01;;;;;;;2.58;1.33;;;16.30;59.50;;;;;;638256;221;26575;-66
2022/06/13 01:07:29;;;;;;;2.05;1.20;;;16.30;59.30;;;;;;650800;218;26787;-66
2022/06/13 01:12:29;;;;;;;2.05;1.23;;;16.20;59.70;;;;;;638044;224;26551;-66
2022/06/13 01:14:59;;;;;;;3.45;1.80;;;16.20;59.80;;;;;;639033;224;26884;-66
2022/06/13 01:17:30;;;;;;;2.08;1.60;;;16.10;60.00;;;;;;640232;219;26555;-66
2022/06/13 01:20:00;;;;;;;4.78;1.62;;;16.10;60.50;;;;;;638403;221;26579;-66
2022/06/13 01:22:45;;;;;;;3.40;1.40;;;16.10;60.50;;;;;;638162;220;26992;-66
2022/06/13 01:25:31;;;;;;;3.12;1.50;;;16.10;60.70;;;;;;641301;221;26661;-66
2022/06/13 01:28:14;;;;;;;3.22;1.80;;;16.00;61.20;;;;;;646746;218;26540;-66
2022/06/13 01:31:14;;;;;;;2.62;1.48;;;16.00;61.20;;;;;;637016;224;26518;-66
2022/06/13 01:34:02;;;;;;;3.42;1.75;;;16.00;61.80;;;;;;636046;220;26561;-66
2022/06/13 01:36:32;;;;;;;3.97;1.73;;;16.00;61.90;;;;;;631256;224;26600;-66
2022/06/13 01:39:05;;;;;;;3.50;1.77;;;16.00;62.10;;;;;;639846;221;26583;-65
2022/06/13 01:41:35;;;;;;;1.27;1.15;;;16.00;62.50;;;;;;646811;221;26513;-65
2022/06/13 01:44:08;;;;;;;3.37;1.80;;;16.00;62.80;;;;;;639758;221;26790;-65
2022/06/13 01:46:36;;;;;;;3.05;1.62;;;15.90;62.60;;;;;;646278;221;26718;-65
2022/06/13 01:49:19;;;;;;;1.60;1.30;;;15.90;63.60;;;;;;638867;224;26537;-65
2022/06/13 01:51:49;;;;;;;3.97;1.60;;;15.80;63.40;;;;;;642829;221;26587;-65
2022/06/13 01:54:21;;;;;;;5.47;1.60;;;15.90;63.80;;;;;;648823;221;26511;-66
2022/06/13 01:57:00;;;;;;;4.22;1.50;;;15.90;64.20;;;;;;639376;221;26595;-65
2022/06/13 01:59:30;;;;;;;2.33;1.50;;;15.90;64.40;;;;;;651012;221;26540;-64
2022/06/13 02:01:57;;;;;;;4.32;1.90;;;15.90;64.90;;;;;;640329;221;26523;-64
2022/06/13 02:04:24;;;;;;;5.68;1.77;;;15.90;65.50;;;;;;638450;224;26545;-65
2022/06/13 02:07:08;;;;;;;2.62;1.75;;;15.80;65.90;;;;;;646295;221;26821;-65
2022/06/13 02:09:36;;;;;;;3.78;1.90;;;15.70;66.80;;;;;;638480;224;26622;-65
2022/06/13 02:12:05;;;;;;;2.80;1.48;;;15.70;67.20;;;;;;640640;223;26570;-65
2022/06/13 02:14:32;;;;;;;2.92;1.77;;;15.70;67.20;;;;;;639081;221;26815;-65
2022/06/13 02:17:14;;;;;;;2.28;1.73;;;15.60;67.50;;;;;;638137;223;26592;-65
2022/06/13 02:20:02;;;;;;;3.30;1.80;;;15.70;67.90;;;;;;638254;221;26564;-65
2022/06/13 02:22:31;;;;;;;2.55;1.60;;;15.60;67.80;;;;;;638081;221;26518;-65
2022/06/13 02:24:59;;;;;;;3.00;1.70;;;15.60;67.90;;;;;;640045;221;26776;-65
2022/06/13 02:27:26;;;;;;;2.60;1.62;;;15.70;68.10;;;;;;641103;221;26511;-65
2022/06/13 02:29:54;;;;;;;3.55;1.67;;;15.60;67.90;;;;;;637044;221;26528;-65
2022/06/13 02:32:23;;;;;;;2.95;1.80;;;15.60;68.80;;;;;;645479;220;26541;-65
2022/06/13 02:34:53;;;;;;;4.80;1.85;;;15.60;68.20;;;;;;642985;220;26570;-65
2022/06/13 02:37:21;;;;;;;2.67;1.70;;;15.70;67.60;;;;;;638800;220;26629;-63
2022/06/13 02:39:52;;;;;;;2.15;1.80;;;15.80;67.50;;;;;;639578;221;26582;-64
2022/06/13 02:42:20;;;;;;;3.60;1.60;;;15.80;67.50;;;;;;641563;220;26593;-64
2022/06/13 02:44:50;;;;;;;2.20;1.67;;;15.90;66.90;;;;;;639006;221;26511;-64
2022/06/13 02:47:19;;;;;;;4.20;1.52;;;15.90;66.90;;;;;;638946;220;26752;-64
2022/06/13 02:49:52;;;;;;;3.87;1.85;;;16.00;66.80;;;;;;638110;221;26739;-64
2022/06/13 02:52:27;;;;;;;2.67;1.55;;;16.00;67.40;;;;;;637251;221;26556;-64
2022/06/13 02:54:55;;;;;;;2.45;1.70;;;16.00;66.60;;;;;;641211;220;26817;-63
2022/06/13 02:57:29;;;;;;;2.20;1.55;;;16.00;66.40;;;;;;643278;221;26536;-63
2022/06/13 03:00:19;;;;;;;3.30;1.60;;;16.00;66.30;;;;;;651108;221;26729;-64
2022/06/13 03:02:56;;;;;;;4.45;1.92;;;16.00;66.90;;;;;;638500;221;26903;-62
2022/06/13 03:05:45;;;;;;;5.62;2.03;;;15.90;68.70;;;;;;641781;221;26563;-66
2022/06/13 03:08:45;;;;;;;3.78;1.70;;;15.80;68.70;;;;;;626918;224;26610;-66
2022/06/13 03:11:16;;;;;;;2.83;1.40;;;15.80;68.70;;;;;;624035;224;26789;-66
2022/06/13 03:13:52;;;;;;;1.62;1.52;;;15.70;69.20;;;;;;637696;224;26518;-64
2022/06/13 03:16:21;;;;;;;1.67;1.52;;;15.70;69.30;;;;;;640204;221;26799;-65
2022/06/13 03:18:49;;;;;;;4.50;1.73;;;15.70;68.70;;;;;;648536;221;26596;-64
2022/06/13 03:21:17;;;;;;;2.75;1.75;;;15.70;68.60;;;;;;638517;221;26525;-64
2022/06/13 03:23:45;;;;;;;2.92;1.60;;;15.60;68.80;;;;;;637487;221;26488;-64
2022/06/13 03:26:17;;;;;;;3.08;1.75;;;15.60;68.60;;;;;;637267;225;26520;-64
2022/06/13 03:28:52;;;;;;;2.78;1.95;;;15.60;68.50;;;;;;643709;221;26601;-64
2022/06/13 03:31:23;;;;;;;3.28;1.87;;;15.60;68.50;;;;;;650358;221;26575;-64
2022/06/13 03:33:50;;;;;;;2.58;1.85;;;15.50;68.40;;;;;;645274;221;26801;-65
2022/06/13 03:36:33;;;;;;;3.20;1.80;;;15.40;68.40;;;;;;642675;221;26558;-65
2022/06/13 03:39:02;;;;;;;3.50;1.60;;;15.40;68.70;;;;;;636226;224;26866;-66
2022/06/13 03:41:32;;;;;;;2.28;1.50;;;15.40;68.40;;;;;;637456;224;26520;-63
2022/06/13 03:44:05;;;;;;;3.40;1.92;;;15.40;68.40;;;;;;639750;223;26798;-65
2022/06/13 03:46:33;;;;;;;3.28;1.62;;;15.40;68.30;;;;;;639666;224;26769;-64
2022/06/13 03:49:17;;;;;;;4.75;1.80;;;15.40;68.40;;;;;;639257;222;26511;-64
2022/06/13 03:51:46;;;;;;;2.87;1.77;;;15.40;68.30;;;;;;639372;224;26782;-65
2022/06/13 03:54:29;;;;;;;3.80;2.03;;;15.30;68.00;;;;;;638998;225;26858;-64
2022/06/13 03:57:00;;;;;;;2.03;1.80;;;15.20;68.20;;;;;;638974;224;26558;-64
2022/06/13 03:59:32;;;;;;;2.20;1.65;;;15.20;69.20;;;;;;638774;224;26653;-65
2022/06/13 04:02:02;;;;;;;2.95;1.60;;;15.20;68.80;;;;;;638611;224;26562;-65
2022/06/13 04:04:32;;;;;;;3.25;1.50;;;15.10;68.50;;;;;;638815;225;26803;-65
2022/06/13 04:07:01;;;;;;;2.78;1.80;;;15.10;68.80;;;;;;638674;224;26572;-70
2022/06/13 04:09:28;;;;;;;2.92;1.90;;;15.10;68.30;;;;;;638647;223;26586;-70
2022/06/13 04:12:12;;;;;;;1.75;1.52;;;15.10;68.30;;;;;;638807;224;26609;-70
2022/06/13 04:14:54;;;;;;;2.50;2.12;;;15.10;68.20;;;;;;634664;224;26586;-70
2022/06/13 04:17:30;;;;;;;3.15;1.87;;;15.10;68.10;;;;;;638208;222;26544;-70
2022/06/13 04:19:59;;;;;;;2.05;1.85;;;15.10;67.80;;;;;;638812;224;26765;-69
2022/06/13 04:22:33;;;;;;;4.93;2.00;;;15.10;67.30;;;;;;638395;224;26499;-69
2022/06/13 04:25:02;;;;;;;2.83;2.03;;;15.10;67.20;;;;;;638068;224;26551;-70
2022/06/13 04:27:33;;;;;;;2.75;1.95;;;15.20;66.40;;;;;;638293;224;26528;-69
2022/06/13 04:30:14;;;;;;;3.17;2.15;;;15.20;66.40;;;;;;637928;224;26511;-69
2022/06/13 04:32:39;;;;;;;1.95;1.80;;;15.30;65.90;;;;;;638604;224;26751;-70
2022/06/13 04:35:07;;;;;;;2.00;1.75;;;15.30;65.30;;;;;;638427;224;26503;-70
2022/06/13 04:37:34;;;;;;;3.00;2.20;;;15.30;65.20;;;;;;638560;224;26551;-70
2022/06/13 04:40:01;;;;;;;2.87;1.90;;;15.30;64.90;;;;;;638483;225;26538;-70
2022/06/13 04:42:29;;;;;;;3.25;2.30;;;15.30;64.60;;;;;;638229;224;26511;-69
2022/06/13 04:44:58;;;;;;;2.83;1.60;;;15.40;64.40;;;;;;638071;224;26515;-69
2022/06/13 04:47:25;;;;;;;3.00;1.98;;;15.30;64.90;;;;;;638281;224;26528;-69
2022/06/13 04:49:54;;;;;;;2.60;1.65;;;15.40;63.70;;;;;;638596;225;27321;-69
2022/06/13 04:52:31;;;;;;;1.85;1.70;;;15.30;63.10;;;;;;638513;225;26507;-69
2022/06/13 04:55:06;;;;;;;2.20;1.55;;;15.50;63.30;;;;;;639395;223;26833;-70
2022/06/13 04:57:33;;;;;;;4.93;2.12;;;15.60;62.80;;;;;;639751;222;26526;-69
2022/06/13 05:00:00;;;;;;;3.33;1.98;;;15.70;62.50;;;;;;639655;224;27231;-70
2022/06/13 05:02:34;;;;;;;2.47;1.98;;;15.70;62.60;;;;;;639369;224;26527;-69
2022/06/13 05:05:02;;;;;;;3.28;1.80;;;15.60;61.80;;;;;;639105;224;26522;-69
2022/06/13 05:07:30;;;;;;;3.72;2.00;;;15.70;60.30;;;;;;639032;225;26602;-69
2022/06/13 05:10:00;;;;;;;2.10;1.87;;;15.90;60.20;;;;;;638934;224;26611;-69
2022/06/13 05:12:32;;;;;;;2.62;1.92;;;15.80;60.10;;;;;;638905;224;26805;-69
2022/06/13 05:15:05;;;;;;;2.75;1.95;;;15.90;58.90;;;;;;638724;224;26570;-69
2022/06/13 05:17:39;;;;;;;3.53;1.80;;;16.20;58.50;;;;;;638637;224;26582;-70
2022/06/13 05:20:27;;;;;;;3.33;1.80;;;16.20;58.50;;;;;;638043;224;26819;-70
2022/06/13 05:23:14;;;;;;;2.78;2.03;;;16.40;58.20;;;;;;630045;224;26579;-69
2022/06/13 05:25:43;;;;;;;3.65;2.40;;;16.40;58.20;;;;;;639016;225;26588;-69
2022/06/13 05:28:11;;;;;;;5.47;2.08;;;16.30;58.20;;;;;;639236;225;26597;-70
2022/06/13 05:30:40;;;;;;;4.32;1.60;;;16.50;58.30;;;;;;639172;224;26536;-70
2022/06/13 05:33:07;;;;;;;3.78;1.62;;;16.50;58.30;;;;;;638944;225;26562;-69
2022/06/13 05:35:35;;;;;;;2.85;1.87;;;16.40;58.30;;;;;;638770;224;26782;-69
2022/06/13 05:38:02;;;;;;;3.75;1.90;;;16.40;58.60;;;;;;638482;223;26541;-70
2022/06/13 05:40:29;;;;;;;4.00;2.20;;;16.40;57.90;;;;;;638578;225;26754;-69
2022/06/13 05:42:57;;;;;;;2.25;1.85;;;16.40;56.70;;;;;;638517;224;26556;-69
2022/06/13 05:45:25;;;;;;;5.03;2.12;;;16.50;56.60;;;;;;638520;225;26511;-70
2022/06/13 05:47:53;;;;;;;4.35;1.98;;;16.70;56.70;;;;;;638526;225;26535;-70
2022/06/13 05:50:20;;;;;;;3.05;1.83;;;16.70;56.70;;;;;;638541;225;26548;-69
2022/06/13 05:52:48;;;;;;;3.33;1.90;;;17.20;55.10;;;;;;638289;224;26504;-69
2022/06/13 05:55:16;;;;;;;3.12;2.10;;;17.20;53.90;;;;;;638466;224;26532;-69
2022/06/13 05:57:44;;;;;;;3.03;2.20;;;17.10;54.40;;;;;;638546;225;26492;-69
2022/06/13 06:00:14;;;;;;;3.28;1.98;;;17.10;54.10;;;;;;638567;225;26570;-69
2022/06/13 06:02:41;;;;;;;5.68;1.80;;;17.00;54.10;;;;;;638585;223;26525;-70
2022/06/13 06:05:09;;;;;;;5.03;2.00;;;17.00;53.40;;;;;;638565;225;27185;-69
2022/06/13 06:07:36;;;;;;;6.03;2.12;;;17.00;52.90;;;;;;640092;223;26596;-68
2022/06/13 06:10:04;;;;;;;3.37;1.70;;;16.90;52.20;;;;;;639943;225;26807;-69
2022/06/13 06:12:32;;;;;;;2.78;1.65;;;17.10;52.10;;;;;;639574;224;26546;-69
2022/06/13 06:14:59;;;;;;;3.00;1.73;;;17.10;52.00;;;;;;639426;224;26526;-68
2022/06/13 06:17:26;;;;;;;1.70;1.60;;;17.10;51.40;;;;;;639158;224;26578;-69
2022/06/13 06:19:53;;;;;;;3.42;1.50;;;17.30;51.10;;;;;;639222;224;26864;-68
2022/06/13 06:22:20;;;;;;;2.95;1.83;;;17.50;51.10;;;;;;639184;225;26558;-69
2022/06/13 06:24:48;;;;;;;4.80;1.90;;;17.50;50.50;;;;;;639064;224;26795;-69
2022/06/13 06:27:15;;;;;;;3.33;1.98;;;17.40;49.60;;;;;;638822;222;26521;-70
2022/06/13 06:29:42;;;;;;;3.87;1.92;;;17.30;49.70;;;;;;638867;225;26858;-69
2022/06/13 06:32:10;;;;;;;4.72;2.00;;;17.40;49.40;;;;;;638927;225;26586;-69
2022/06/13 06:34:36;;;;;;;4.47;1.90;;;17.00;48.70;;;;;;638778;224;26810;-69
2022/06/13 06:37:04;;;;;;;3.78;1.92;;;17.20;49.20;;;;;;638801;224;26559;-70
2022/06/13 06:39:31;;;;;;;3.20;1.70;;;17.30;49.00;;;;;;638841;225;26594;-69
2022/06/13 06:41:58;;;;;;;3.97;1.90;;;17.30;48.40;;;;;;638859;224;27126;-69
2022/06/13 06:44:26;;;;;;;2.17;1.80;;;17.30;48.90;;;;;;638582;224;26511;-69
2022/06/13 06:46:54;;;;;;;3.95;1.70;;;17.40;48.80;;;;;;638554;224;26488;-69
2022/06/13 06:49:22;;;;;;;4.18;1.70;;;17.40;49.00;;;;;;638389;224;26575;-69
2022/06/13 06:51:50;;;;;;;3.33;1.65;;;17.40;49.00;;;;;;638539;224;26542;-68
2022/06/13 07:02:06;;;;;;;2.62;1.60;;;17.90;48.00;;;;;;638580;225;26522;-68
2022/06/13 07:04:33;;;;;;;3.60;1.80;;;18.20;48.10;;;;;;638489;225;26519;-69
2022/06/13 07:07:01;;;;;;;2.28;1.70;;;18.20;47.60;;;;;;638613;224;26515;-69
2022/06/13 07:09:28;;;;;;;5.50;2.03;;;18.00;48.00;;;;;;638530;225;26767;-68
2022/06/13 07:11:55;;;;;;;2.62;1.40;;;17.80;48.20;;;;;;638619;223;26515;-68
2022/06/13 07:14:28;;;;;;;4.05;1.65;;;17.60;48.30;;;;;;638869;224;26749;-69
2022/06/13 07:16:55;;;;;;;2.25;1.50;;;17.70;48.30;;;;;;638906;225;26480;-68
2022/06/13 07:19:22;;;;;;;19.90;2.83;;;18.00;47.70;;;;;;640580;223;26524;-68
2022/06/13 07:21:49;;;;;;;8.32;2.15;;;18.20;47.20;;;;;;640341;220;26545;-69
2022/06/13 07:24:16;;;;;;;4.10;1.90;;;18.60;46.70;;;;;;644350;218;26904;-71
2022/06/13 07:26:44;;;;;;;3.03;1.40;;;19.10;45.80;;;;;;641353;221;26535;-71
2022/06/13 07:29:11;;;;;;;5.57;1.80;;;18.80;45.30;;;;;;642695;221;27252;-71
2022/06/13 07:31:41;;;;;;;3.42;2.00;;;18.30;44.80;;;;;;639206;225;26563;-70
2022/06/13 07:34:11;;;;;;;3.12;1.77;;;18.00;44.80;;;;;;639055;225;26566;-71
2022/06/13 07:36:38;;;;;;;3.90;1.87;;;17.90;44.70;;;;;;638920;225;26545;-71
2022/06/13 07:39:06;;;;;;;4.95;2.25;;;17.60;44.00;;;;;;638880;225;26920;-71
2022/06/13 07:41:33;;;;;;;4.40;1.73;;;17.50;45.30;;;;;;638880;224;26571;-71
2022/06/13 07:44:00;;;;;;;3.65;1.37;;;17.50;45.30;;;;;;637778;225;26570;-71
2022/06/13 07:46:28;;;;;;;4.00;1.92;;;17.70;45.50;;;;;;637781;224;26570;-64
2022/06/13 07:48:55;;;;;;;6.10;1.70;;;17.70;45.60;;;;;;637705;224;26584;-64
2022/06/13 07:51:23;;;;;;;1.60;1.40;;;17.60;46.00;;;;;;637822;224;26558;-64
2022/06/13 07:53:51;;;;;;;3.12;2.03;;;17.80;46.20;;;;;;637689;224;26584;-63
2022/06/13 07:56:19;;;;;;;5.40;1.60;;;17.90;46.10;;;;;;637420;224;26568;-64
2022/06/13 07:58:46;;;;;;;5.82;1.48;;;17.90;46.10;;;;;;637222;225;26605;-63
2022/06/13 08:01:13;;;;;;;3.25;1.58;;;18.00;46.10;;;;;;637377;225;26565;-63
2022/06/13 08:03:41;;;;;;;5.07;1.62;;;18.00;46.10;;;;;;637338;225;26800;-64
2022/06/13 08:06:08;;;;;;;4.60;1.40;;;18.00;46.10;;;;;;638451;220;26812;-64
2022/06/13 08:08:36;;;;;;;4.22;1.40;;;18.10;46.10;;;;;;644759;219;26596;-65
2022/06/13 08:11:03;;;;;;;1.75;1.25;;;18.40;45.90;;;;;;648066;221;26901;-64
2022/06/13 08:13:30;;;;;;;3.17;1.50;;;18.10;46.50;;;;;;646508;221;26613;-64
2022/06/13 08:15:57;;;;;;;2.10;1.52;;;17.70;47.10;;;;;;648260;221;27053;-64
2022/06/13 08:18:24;;;;;;;2.70;1.67;;;17.80;47.70;;;;;;641972;221;26576;-64
2022/06/13 08:20:52;;;;;;;2.97;1.40;;;17.90;47.90;;;;;;642362;221;27203;-64
2022/06/13 08:23:20;;;;;;;5.87;1.50;;;17.90;47.20;;;;;;646824;221;26570;-64
2022/06/13 08:25:47;;;;;;;2.45;1.33;;;17.90;47.20;;;;;;638451;223;26559;-64
2022/06/13 08:28:14;;;;;;;2.75;1.50;;;17.90;46.10;;;;;;637283;223;26737;-64
2022/06/13 08:30:47;;;;;;;2.37;1.50;;;17.90;46.10;;;;;;640210;223;26572;-64
2022/06/13 08:33:15;;;;;;;2.22;1.30;;;17.90;46.10;;;;;;643510;220;26505;-64
2022/06/13 08:35:42;;;;;;;4.50;1.40;;;17.90;46.40;;;;;;643275;220;26528;-64
2022/06/13 08:38:09;;;;;;;2.45;1.30;;;18.00;46.30;;;;;;639951;224;26783;-64
2022/06/13 08:40:52;;;;;;;2.25;1.10;;;18.30;46.20;;;;;;646282;221;26696;-64
2022/06/13 08:43:23;;;;;;;6.25;1.60;;;18.40;45.50;;;;;;643743;220;26538;-64
2022/06/13 08:45:51;;;;;;;3.17;1.40;;;18.70;44.90;;;;;;642733;222;26481;-64
2022/06/13 08:48:32;;;;;;;1.87;1.27;;;19.20;44.70;;;;;;649874;221;26798;-64
2022/06/13 08:51:04;;;;;;;3.03;1.17;;;19.30;44.10;;;;;;650970;221;26487;-64
2022/06/13 08:53:41;;;;;;;2.83;1.42;;;19.30;44.10;;;;;;639030;224;26542;-62
2022/06/13 08:56:08;;;;;;;2.87;1.60;;;19.60;43.70;;;;;;638725;222;26570;-64
2022/06/13 08:58:35;;;;;;;2.30;1.45;;;19.90;43.60;;;;;;639021;221;26774;-64
2022/06/13 09:01:17;;;;;;;2.28;1.40;;;19.60;43.50;;;;;;650000;221;26480;-65
2022/06/13 09:03:50;;;;;;;5.43;1.55;;;19.60;43.40;;;;;;644061;221;26547;-64
2022/06/13 09:06:18;;;;;;;1.90;1.20;;;19.80;43.20;;;;;;646743;221;26568;-63
2022/06/13 09:08:46;;;;;;;2.65;1.40;;;19.60;43.00;;;;;;650673;221;26815;-63
2022/06/13 09:11:19;;;;;;;3.00;1.60;;;19.40;43.40;;;;;;646560;221;26517;-64
2022/06/13 09:14:04;;;;;;;1.55;1.45;;;19.50;43.20;;;;;;637435;221;26512;-64
2022/06/13 09:16:32;;;;;;;4.12;1.08;;;19.40;44.20;;;;;;639548;221;26604;-64
2022/06/13 09:19:23;;;;;;;2.67;1.42;;;19.40;44.70;;;;;;639879;221;26589;-64
2022/06/13 09:21:51;;;;;;;2.53;1.60;;;19.30;44.60;;;;;;643165;221;26748;-64
2022/06/13 09:24:24;;;;;;;2.87;1.33;;;19.90;44.30;;;;;;646960;220;26581;-65
2022/06/13 09:26:53;;;;;;;2.83;1.48;;;19.50;45.10;;;;;;637302;221;26532;-65
2022/06/13 09:29:26;;;;;;;4.72;1.62;;;19.30;44.90;;;;;;641559;221;26532;-65
2022/06/13 09:31:54;;;;;;;4.05;1.42;;;18.50;45.30;;;;;;645568;220;26533;-65
2022/06/13 09:34:33;;;;;;;2.00;1.58;;;18.70;45.00;;;;;;650249;221;26557;-67
2022/06/13 09:37:03;;;;;;;3.53;1.60;;;18.70;45.00;;;;;;640011;221;26572;-64
2022/06/13 09:39:31;;;;;;;3.65;1.70;;;18.50;44.40;;;;;;636951;221;26592;-64
2022/06/13 09:42:21;;;;;;;6.35;1.67;;;18.50;43.70;;;;;;639193;223;26573;-67
2022/06/13 09:45:06;;;;;;;3.72;1.80;;;18.40;43.60;;;;;;638428;224;26585;-64
2022/06/13 09:47:41;;;;;;;6.32;3.70;;;18.40;44.00;;;;;;637590;221;26618;-64
2022/06/13 09:50:09;;;;;;;9.32;6.55;;;18.60;44.20;;;;;;638291;224;26564;-65
2022/06/13 09:52:40;;;;;;;13.30;8.75;;;18.60;44.20;;;;;;638880;224;26857;-66
2022/06/13 09:55:27;;;;;;;19.20;12.37;;;18.60;43.80;;;;;;639035;221;26521;-65
2022/06/13 09:58:02;;;;;;;26.67;17.35;;;18.50;43.90;;;;;;639287;224;26566;-65
2022/06/13 10:01:00;;;;;;;16.10;11.48;;;18.60;44.00;;;;;;639567;221;26533;-66
2022/06/13 10:03:39;;;;;;;9.88;7.05;;;18.80;44.20;;;;;;641161;221;26508;-65
2022/06/13 10:06:12;;;;;;;9.13;6.93;;;18.80;44.20;;;;;;645160;221;26785;-70
2022/06/13 10:08:56;;;;;;;10.40;8.00;;;18.90;44.30;;;;;;638396;221;26596;-72
2022/06/13 10:11:41;;;;;;;12.10;7.70;;;19.40;44.20;;;;;;639271;221;26824;-75
2022/06/13 10:14:33;;;;;;;9.95;6.68;;;19.40;43.90;;;;;;635751;224;26580;-71
2022/06/13 10:17:12;;;;;;;12.98;8.95;;;19.50;44.00;;;;;;641045;220;26565;-67
2022/06/13 10:19:44;;;;;;;11.45;7.40;;;19.60;43.40;;;;;;649637;220;26589;-70
2022/06/13 10:22:12;;;;;;;13.75;7.97;;;19.50;43.70;;;;;;637943;224;26492;-68
2022/06/13 10:24:40;;;;;;;9.57;6.82;;;19.90;43.60;;;;;;640539;220;26715;-68
2022/06/13 10:27:14;;;;;;;11.65;6.87;;;19.80;43.10;;;;;;648945;221;26769;-68
2022/06/13 10:29:48;;;;;;;11.07;6.15;;;20.10;43.20;;;;;;645389;221;26757;-68
2022/06/13 10:32:26;;;;;;;6.93;4.72;;;20.20;42.40;;;;;;649956;221;26562;-68
2022/06/13 10:34:55;;;;;;;13.18;5.85;;;20.50;42.10;;;;;;640051;221;26576;-67
2022/06/13 10:37:38;;;;;;;10.10;6.05;;;20.70;41.80;;;;;;638243;221;26579;-67
2022/06/13 10:40:07;;;;;;;7.85;5.32;;;20.80;42.00;;;;;;648862;221;26572;-68
2022/06/13 10:42:33;;;;;;;87.43;22.83;;;21.10;42.10;;;;;;650669;221;26605;-69
2022/06/13 10:45:01;;;;;;;138.77;30.98;;;21.40;41.10;;;;;;639980;221;26804;-69
2022/06/13 10:47:33;;;;;;;133.18;33.13;;;21.20;41.00;;;;;;648936;221;26802;-72
2022/06/13 10:50:01;;;;;;;121.13;31.58;;;20.60;41.70;;;;;;637535;225;26553;-71
2022/06/13 10:52:28;;;;;;;93.50;26.45;;;20.50;41.40;;;;;;638522;223;26574;-70
2022/06/13 10:54:56;;;;;;;98.05;25.70;;;20.40;41.10;;;;;;640124;223;26602;-70
2022/06/13 10:57:29;;;;;;;67.22;20.40;;;19.90;40.80;;;;;;639650;223;26591;-71
2022/06/13 11:00:09;;;;;;;58.22;19.35;;;20.10;40.80;;;;;;639474;224;26577;-69
2022/06/13 11:02:37;;;;;;;31.70;11.00;;;20.00;40.70;;;;;;639151;224;26862;-71
2022/06/13 11:05:07;;;;;;;21.60;7.62;;;20.50;40.40;;;;;;639256;224;26513;-70
2022/06/13 11:07:34;;;;;;;24.37;9.02;;;20.90;40.10;;;;;;639406;224;26795;-71
2022/06/13 11:10:01;;;;;;;18.75;7.03;;;21.00;39.30;;;;;;638476;224;26513;-71
2022/06/13 11:12:30;;;;;;;19.52;6.53;;;20.70;39.80;;;;;;639167;224;27187;-71
2022/06/13 11:22:51;;;;;;;9.73;3.90;;;20.00;41.10;;;;;;639191;224;26502;-70
2022/06/13 11:25:22;;;;;;;13.68;4.60;;;20.00;40.50;;;;;;638663;224;26571;-70
2022/06/13 11:27:49;;;;;;;8.82;3.87;;;20.10;40.00;;;;;;639116;224;26594;-70
2022/06/13 11:30:41;;;;;;;8.82;3.97;;;20.20;40.10;;;;;;637227;224;26866;-70
2022/06/13 11:33:25;;;;;;;6.95;3.50;;;20.40;39.90;;;;;;638829;224;26528;-70
2022/06/13 11:35:54;;;;;;;10.55;3.90;;;20.60;39.20;;;;;;638855;224;26567;-70
2022/06/13 11:38:24;;;;;;;8.25;3.45;;;20.70;37.80;;;;;;638646;222;26608;-70
2022/06/13 11:41:03;;;;;;;6.22;3.15;;;21.00;38.20;;;;;;638974;224;26587;-71
2022/06/13 11:43:32;;;;;;;5.70;2.92;;;21.50;37.50;;;;;;638945;224;26815;-71
2022/06/13 11:45:59;;;;;;;7.95;2.97;;;22.00;37.90;;;;;;638852;222;26578;-70
2022/06/13 11:48:28;;;;;;;4.05;2.47;;;22.30;38.10;;;;;;638846;224;26597;-70
2022/06/13 11:50:55;;;;;;;9.85;3.47;;;22.30;38.50;;;;;;638900;224;26563;-70
2022/06/13 11:55:56;;;;;;;5.87;2.62;;;22.10;38.10;;;;;;639046;224;26582;-70
2022/06/13 11:58:25;;;;;;;8.45;2.90;;;21.70;38.70;;;;;;638868;224;26590;-70
2022/06/13 12:00:53;;;;;;;7.32;2.67;;;21.70;38.70;;;;;;638982;224;26564;-70
2022/06/13 12:03:21;;;;;;;5.72;3.10;;;21.90;38.50;;;;;;638993;224;26557;-70
2022/06/13 12:05:49;;;;;;;5.35;2.58;;;21.80;38.60;;;;;;640730;222;26587;-70
2022/06/13 12:08:17;;;;;;;7.40;3.15;;;21.80;37.80;;;;;;640169;219;26530;-70
2022/06/13 12:10:53;;;;;;;5.18;2.62;;;21.80;37.80;;;;;;639906;222;26838;-70
2022/06/13 12:13:22;;;;;;;5.28;2.70;;;21.50;37.60;;;;;;639516;224;26561;-70
2022/06/13 12:15:52;;;;;;;4.35;2.22;;;21.20;37.70;;;;;;639554;224;26946;-70
2022/06/13 12:18:26;;;;;;;7.25;2.75;;;20.90;39.60;;;;;;639350;224;26762;-70
2022/06/13 12:20:53;;;;;;;5.35;2.47;;;20.20;41.50;;;;;;639348;224;26763;-70
2022/06/13 12:23:21;;;;;;;4.75;2.42;;;19.80;42.90;;;;;;638887;224;26539;-71
2022/06/13 12:25:49;;;;;;;4.78;2.33;;;19.60;43.60;;;;;;638570;224;26742;-71
2022/06/13 12:28:17;;;;;;;4.87;2.47;;;19.10;44.50;;;;;;638694;224;26601;-71
2022/06/13 12:31:05;;;;;;;5.75;2.20;;;18.90;45.10;;;;;;639653;219;26514;-70
2022/06/13 12:33:49;;;;;;;6.78;2.55;;;18.80;45.00;;;;;;637050;221;26842;-69
2022/06/13 12:36:21;;;;;;;4.40;2.15;;;18.50;45.70;;;;;;639632;221;26508;-69
2022/06/13 12:39:15;;;;;;;4.22;2.25;;;18.50;45.80;;;;;;640701;221;26795;-68
2022/06/13 12:41:46;;;;;;;4.10;1.92;;;18.60;45.20;;;;;;642623;222;26561;-69
2022/06/13 12:44:26;;;;;;;5.00;1.65;;;19.30;44.30;;;;;;638399;221;26539;-69
2022/06/13 12:47:20;;;;;;;5.70;1.67;;;19.30;44.30;;;;;;638411;221;26476;-68
2022/06/13 12:49:51;;;;;;;1.87;1.27;;;19.80;42.70;;;;;;648307;220;26536;-68
2022/06/13 12:52:38;;;;;;;5.25;2.08;;;21.00;40.90;;;;;;641411;221;26535;-69
2022/06/13 12:55:25;;;;;;;2.15;1.20;;;21.50;39.90;;;;;;637168;224;26507;-69
2022/06/13 12:58:11;;;;;;;2.62;1.37;;;21.70;39.40;;;;;;638282;221;26960;-70
2022/06/13 13:00:42;;;;;;;1.83;1.20;;;21.20;38.80;;;;;;635327;221;26562;-70
2022/06/13 13:03:27;;;;;;;2.62;1.30;;;20.50;39.50;;;;;;644514;221;26523;-70
2022/06/13 13:06:32;;;;;;;2.53;1.27;;;21.10;39.50;;;;;;649580;221;26544;-69
2022/06/13 13:09:14;;;;;;;4.25;1.15;;;21.10;39.50;;;;;;619454;221;26573;-68
2022/06/13 13:11:43;;;;;;;3.15;1.33;;;21.00;39.40;;;;;;634205;221;26580;-68
2022/06/13 13:14:16;;;;;;;1.75;1.42;;;21.00;39.30;;;;;;638463;221;26507;-68
2022/06/13 13:16:59;;;;;;;6.55;1.55;;;21.60;39.70;;;;;;644810;220;26781;-66
2022/06/13 13:19:33;;;;;;;5.20;1.50;;;21.60;39.60;;;;;;643445;220;26591;-67
2022/06/13 13:22:01;;;;;;;3.92;1.55;;;21.20;41.30;;;;;;650616;221;26764;-67
2022/06/13 13:24:48;;;;;;;3.50;1.48;;;21.30;42.60;;;;;;641767;221;26526;-67
2022/06/13 13:27:16;;;;;;;7.43;1.90;;;21.70;43.60;;;;;;648486;221;26590;-68
2022/06/13 13:30:02;;;;;;;4.07;1.30;;;21.60;43.40;;;;;;643976;221;26594;-68